Time;durP1;ratioP1;P1;durP2;ratioP2;P2;SDS_P1;SDS_P2;PMS_P1;PMS_P2;Temp;Humidity;BMP_temperature;BMP_pressure;BME280_temperature;BME280_humidity;BME280_pressure;Samples;Min_cycle;Max_cycle;Signal;HPM_P1;HPM_P2
2021/12/01 00:02:17;;;;;;;6.07;5.47;;;;;;;9.02;100.00;100077.59;5133426;27;20023;-81
2021/12/01 00:04:42;;;;;;;7.05;6.50;;;;;;;8.99;100.00;100083.13;5132455;28;20023;-80
2021/12/01 00:07:09;;;;;;;7.22;6.63;;;;;;;9.00;100.00;100063.59;5118048;27;21510;-81
2021/12/01 00:09:36;;;;;;;6.65;6.03;;;;;;;8.96;100.00;100062.94;5128630;27;20026;-80
2021/12/01 00:12:02;;;;;;;6.85;6.25;;;;;;;8.93;100.00;100052.56;5118895;27;20117;-78
2021/12/01 00:14:27;;;;;;;6.43;5.82;;;;;;;9.03;100.00;100055.41;5137625;27;20047;-82
2021/12/01 00:16:53;;;;;;;6.35;5.85;;;;;;;8.98;100.00;100049.59;5117806;27;20023;-80
2021/12/01 00:19:18;;;;;;;6.78;6.18;;;;;;;8.93;100.00;100033.16;5137460;27;20034;-78
2021/12/01 00:21:44;;;;;;;5.63;5.15;;;;;;;8.96;100.00;100030.28;5136436;27;20019;-79
2021/12/01 00:24:09;;;;;;;5.95;5.47;;;;;;;8.96;100.00;100022.34;5137308;27;20042;-80
2021/12/01 00:26:35;;;;;;;5.63;5.22;;;;;;;9.01;100.00;100021.06;5137038;27;20072;-79
2021/12/01 00:29:00;;;;;;;5.28;4.78;;;;;;;9.10;100.00;100001.00;5136673;27;20084;-79
2021/12/01 00:31:25;;;;;;;6.00;5.50;;;;;;;8.95;100.00;99988.81;5136568;27;20022;-79
2021/12/01 00:33:51;;;;;;;5.45;4.95;;;;;;;9.02;100.00;99982.13;5136977;27;20148;-79
2021/12/01 00:36:17;;;;;;;5.75;5.25;;;;;;;8.99;100.00;99971.72;5118800;27;20481;-81
2021/12/01 00:38:43;;;;;;;5.75;5.25;;;;;;;8.98;100.00;99968.22;5137051;27;20034;-78
2021/12/01 00:41:13;;;;;;;5.93;5.47;;;;;;;9.01;100.00;99967.16;5137043;27;20019;-81
2021/12/01 00:43:39;;;;;;;7.15;5.30;;;;;;;9.02;100.00;99951.13;5136810;27;20031;-79
2021/12/01 00:46:19;;;;;;;6.55;5.72;;;;;;;8.94;100.00;99952.63;5117986;27;20038;-78
2021/12/01 00:48:45;;;;;;;6.65;6.05;;;;;;;9.01;100.00;99951.25;5118372;27;20061;-79
2021/12/01 00:51:11;;;;;;;5.88;5.38;;;;;;;8.94;100.00;99952.63;5136381;27;20080;-79
2021/12/01 00:53:37;;;;;;;6.47;5.80;;;;;;;8.86;100.00;99938.13;5117760;27;20055;-79
2021/12/01 00:56:03;;;;;;;6.63;5.68;;;;;;;8.97;100.00;99931.19;5137129;27;20430;-79
2021/12/01 00:58:29;;;;;;;6.40;5.60;;;;;;;8.84;100.00;99924.13;5136124;27;20446;-81
2021/12/01 01:00:55;;;;;;;6.97;5.88;;;;;;;8.95;100.00;99946.38;5114266;28;20084;-81
2021/12/01 01:03:21;;;;;;;6.60;6.00;;;;;;;9.02;100.00;99940.53;5116516;28;20110;-80
2021/12/01 01:05:47;;;;;;;6.50;5.70;;;;;;;8.94;100.00;99926.09;5115995;28;20439;-79
2021/12/01 01:08:15;;;;;;;6.40;5.90;;;;;;;8.90;100.00;99906.09;5115869;28;20118;-81
2021/12/01 01:18:45;;;;;;;7.82;6.97;;;;;;;8.89;100.00;99899.94;5114033;28;20432;-78
2021/12/01 01:21:11;;;;;;;;;;;;;;;9.16;99.75;99893.59;5115925;28;20382;-78
2021/12/01 01:23:38;;;;;;;8.48;7.68;;;;;;;8.85;99.89;99894.00;5115709;28;19912;-81
2021/12/01 01:26:06;;;;;;;8.60;7.90;;;;;;;8.86;100.00;99908.94;5114113;28;20428;-78
2021/12/01 01:28:32;;;;;;;9.40;8.35;;;;;;;8.83;100.00;99887.97;5115861;28;20497;-79
2021/12/01 01:30:58;;;;;;;9.80;8.80;;;;;;;8.75;100.00;99863.78;5115178;28;20089;-81
2021/12/01 01:33:24;;;;;;;8.20;7.40;;;;;;;8.79;99.75;99861.75;5107179;28;20490;-79
2021/12/01 01:35:50;;;;;;;9.25;8.35;;;;;;;8.83;98.95;99858.78;5104482;28;20049;-78
2021/12/01 01:38:15;;;;;;;9.00;8.10;;;;;;;8.72;99.42;99845.47;5115374;28;20038;-79
2021/12/01 01:40:41;;;;;;;8.75;7.85;;;;;;;8.85;98.45;99854.25;5115463;28;20049;-81
2021/12/01 01:43:08;;;;;;;8.15;7.45;;;;;;;8.79;99.19;99864.41;5114776;28;20040;-80
2021/12/01 01:45:34;;;;;;;8.35;7.70;;;;;;;8.78;99.31;99868.88;5115131;28;20027;-80
2021/12/01 01:48:08;;;;;;;7.00;6.20;;;;;;;8.69;98.85;99848.31;5115345;28;20058;-80
2021/12/01 01:50:36;;;;;;;8.48;7.68;;;;;;;8.74;98.97;99845.38;5114835;28;20036;-80
2021/12/01 01:53:06;;;;;;;8.38;7.63;;;;;;;8.69;99.24;99844.84;5113193;28;20057;-78
2021/12/01 01:55:32;;;;;;;;;;;;;;;8.84;98.23;99839.28;5115508;28;20020;-79
2021/12/01 01:57:58;;;;;;;7.07;6.47;;;;;;;8.75;97.72;99841.75;5114846;28;19918;-80
2021/12/01 02:00:23;;;;;;;7.30;6.60;;;;;;;8.69;98.07;99823.63;5122224;27;20118;-79
2021/12/01 02:02:49;;;;;;;7.68;7.07;;;;;;;8.67;98.30;99825.53;5135229;27;20083;-78
2021/12/01 02:05:15;;;;;;;8.60;6.75;;;;;;;8.69;98.29;99815.69;5135361;27;20100;-81
2021/12/01 02:07:42;;;;;;;7.13;6.45;;;;;;;8.62;98.01;99823.22;5135213;27;20046;-79
2021/12/01 02:10:08;;;;;;;6.72;5.80;;;;;;;8.61;97.91;99793.19;5134862;27;20046;-78
2021/12/01 02:12:33;;;;;;;6.63;6.10;;;;;;;8.68;96.73;99795.41;5116664;27;20027;-78
2021/12/01 02:14:59;;;;;;;6.63;6.13;;;;;;;8.53;98.13;99774.38;5135288;27;20063;-81
2021/12/01 02:17:24;;;;;;;5.90;5.30;;;;;;;8.75;96.53;99764.88;5134988;27;20038;-79
2021/12/01 02:19:53;;;;;;;5.65;5.13;;;;;;;8.63;95.99;99748.06;5134298;27;20027;-79
2021/12/01 02:22:18;;;;;;;6.22;5.72;;;;;;;8.56;97.24;99760.03;5134923;27;20385;-79
2021/12/01 02:24:47;;;;;;;5.30;4.90;;;;;;;8.59;96.12;99765.16;5134757;27;20063;-79
2021/12/01 02:27:13;;;;;;;5.05;4.63;;;;;;;8.53;95.97;99745.22;5135097;27;20027;-79
2021/12/01 02:29:39;;;;;;;4.88;4.47;;;;;;;8.60;95.68;99750.94;5134628;27;20023;-79
2021/12/01 02:32:05;;;;;;;4.63;4.32;;;;;;;8.54;95.42;99746.91;5134368;27;20038;-79
2021/12/01 02:34:33;;;;;;;4.75;4.35;;;;;;;8.53;96.23;99747.88;5134233;27;20106;-80
2021/12/01 02:36:59;;;;;;;3.80;3.53;;;;;;;8.54;95.45;99725.72;5134655;27;20031;-78
2021/12/01 02:39:26;;;;;;;5.20;4.22;;;;;;;8.53;96.20;99731.09;5134825;27;20386;-80
2021/12/01 02:41:55;;;;;;;4.13;3.83;;;;;;;8.61;95.25;99734.06;5134272;27;20038;-78
2021/12/01 02:44:21;;;;;;;3.75;3.47;;;;;;;8.55;94.66;99724.75;5135218;27;20096;-79
2021/12/01 02:46:46;;;;;;;4.18;3.78;;;;;;;8.43;95.09;99690.34;5134469;27;20030;-81
2021/12/01 02:49:12;;;;;;;4.80;4.00;;;;;;;8.48;94.76;99701.47;5133964;27;20207;-78
2021/12/01 02:51:38;;;;;;;4.78;4.38;;;;;;;8.44;94.52;99684.09;5131462;27;20038;-79
2021/12/01 02:54:05;;;;;;;5.32;4.45;;;;;;;8.40;95.66;99699.38;5117417;27;20630;-78
2021/12/01 02:56:34;;;;;;;5.80;5.13;;;;;;;8.35;95.37;99678.50;5127686;27;20019;-80
2021/12/01 02:59:03;;;;;;;5.63;4.63;;;;;;;8.44;95.21;99686.72;5120508;27;20126;-81
2021/12/01 03:01:30;;;;;;;6.68;5.13;;;;;;;8.33;94.97;99683.03;5136664;27;20036;-78
2021/12/01 03:03:58;;;;;;;6.47;5.18;;;;;;;8.33;94.68;99659.19;5129803;27;20103;-80
2021/12/01 03:06:26;;;;;;;5.95;5.35;;;;;;;8.26;95.35;99654.44;5123226;27;20031;-78
2021/12/01 03:08:53;;;;;;;5.30;4.80;;;;;;;8.34;94.60;99655.59;5133907;27;20233;-79
2021/12/01 03:11:18;;;;;;;5.70;5.15;;;;;;;8.32;94.89;99657.50;5134379;27;20046;-80
2021/12/01 03:13:44;;;;;;;6.22;5.30;;;;;;;8.33;93.79;99642.47;5115588;27;20050;-79
2021/12/01 03:16:10;;;;;;;6.75;5.40;;;;;;;8.13;93.36;99604.19;5134114;27;20099;-80
2021/12/01 03:18:35;;;;;;;5.72;5.22;;;;;;;8.35;93.29;99625.50;5133826;27;20031;-80
2021/12/01 03:21:02;;;;;;;7.15;4.93;;;;;;;8.31;93.18;99631.97;5115533;27;20041;-80
2021/12/01 03:23:27;;;;;;;5.57;5.07;;;;;;;8.31;93.27;99620.53;5134056;27;20389;-79
2021/12/01 03:25:53;;;;;;;5.90;5.32;;;;;;;8.29;93.74;99620.63;5133349;27;20027;-81
2021/12/01 03:28:21;;;;;;;5.65;5.15;;;;;;;8.39;92.79;99621.69;5134317;27;20034;-80
2021/12/01 03:30:47;;;;;;;5.43;4.93;;;;;;;8.31;93.36;99610.78;5122331;27;20035;-80
2021/12/01 03:33:17;;;;;;;5.85;5.07;;;;;;;8.37;92.48;99610.31;5133655;27;20035;-79
2021/12/01 03:35:44;;;;;;;8.93;5.45;;;;;;;8.25;92.91;99605.94;5134129;27;20023;-81
2021/12/01 03:38:11;;;;;;;6.00;5.40;;;;;;;8.27;93.32;99600.53;5133543;27;20038;-78
2021/12/01 03:40:36;;;;;;;6.13;5.53;;;;;;;8.29;92.72;99583.53;5133739;27;20083;-80
2021/12/01 03:43:02;;;;;;;6.03;5.38;;;;;;;8.27;93.05;99590.78;5114241;27;20035;-80
2021/12/01 03:45:28;;;;;;;6.05;5.43;;;;;;;8.25;93.83;99570.66;5134007;27;20031;-78
2021/12/01 03:47:54;;;;;;;6.38;5.78;;;;;;;8.21;93.16;99559.44;5133327;27;20065;-80
2021/12/01 03:50:19;;;;;;;5.88;5.35;;;;;;;8.10;93.87;99559.41;5133981;27;20022;-80
2021/12/01 03:52:44;;;;;;;6.03;5.07;;;;;;;8.13;94.35;99543.28;5133406;27;20019;-81
2021/12/01 03:55:10;;;;;;;6.20;5.10;;;;;;;8.27;93.01;99553.69;5133393;27;20023;-81
2021/12/01 03:57:36;;;;;;;5.70;5.22;;;;;;;8.11;93.34;99524.84;5114873;28;20027;-80
2021/12/01 04:00:06;;;;;;;6.82;6.13;;;;;;;8.12;93.90;99515.97;5133524;28;20043;-79
2021/12/01 04:02:32;;;;;;;6.40;5.90;;;;;;;8.11;93.72;99513.41;5129585;28;20030;-79
2021/12/01 04:04:57;;;;;;;7.75;6.95;;;;;;;8.05;93.65;99501.47;5114476;28;20035;-79
2021/12/01 04:07:23;;;;;;;6.60;5.80;;;;;;;8.12;93.15;99491.28;5132817;27;20377;-80
2021/12/01 04:09:48;;;;;;;6.70;6.10;;;;;;;8.16;92.29;99476.84;5113907;28;20042;-79
2021/12/01 04:12:14;;;;;;;6.97;6.35;;;;;;;8.11;92.55;99463.09;5133382;28;20461;-80
2021/12/01 04:14:39;;;;;;;6.28;5.78;;;;;;;8.01;93.20;99475.34;5132996;27;20437;-80
2021/12/01 04:17:05;;;;;;;7.82;5.70;;;;;;;8.10;92.75;99479.97;5114080;28;20039;-78
2021/12/01 04:19:30;;;;;;;5.82;5.32;;;;;;;8.06;93.32;99478.47;5133536;28;20027;-79
2021/12/01 04:21:57;;;;;;;5.47;4.97;;;;;;;7.99;92.65;99477.25;5132901;28;20027;-79
2021/12/01 04:24:22;;;;;;;5.82;5.22;;;;;;;8.03;92.70;99454.88;5133187;28;20058;-80
2021/12/01 04:26:48;;;;;;;4.75;4.25;;;;;;;8.01;92.47;99457.66;5133291;28;20029;-78
2021/12/01 04:29:13;;;;;;;5.10;4.60;;;;;;;8.03;91.89;99447.81;5113933;28;20038;-79
2021/12/01 04:31:40;;;;;;;5.80;4.32;;;;;;;8.01;92.69;99446.22;5132914;27;20027;-80
2021/12/01 04:34:06;;;;;;;5.00;4.50;;;;;;;7.97;92.53;99438.53;5115183;28;20079;-79
2021/12/01 04:36:33;;;;;;;5.53;4.72;;;;;;;8.05;92.00;99434.44;5114082;28;20038;-78
2021/12/01 04:38:59;;;;;;;5.13;4.72;;;;;;;8.06;91.34;99429.03;5132708;27;20019;-78
2021/12/01 04:41:27;;;;;;;4.20;3.67;;;;;;;8.01;90.91;99395.94;5132854;28;20047;-79
2021/12/01 04:43:53;;;;;;;5.53;4.07;;;;;;;8.04;91.20;99401.00;5098632;28;20067;-79
2021/12/01 04:46:20;;;;;;;4.38;3.72;;;;;;;8.06;91.29;99407.00;5114187;28;20066;-80
2021/12/01 04:48:47;;;;;;;4.43;4.00;;;;;;;7.93;92.14;99402.63;5133087;28;20019;-80
2021/12/01 04:51:12;;;;;;;4.28;3.88;;;;;;;7.95;91.75;99384.84;5132050;28;20114;-78
2021/12/01 04:53:38;;;;;;;4.63;4.20;;;;;;;8.09;90.62;99373.19;5133137;27;20122;-81
2021/12/01 04:56:04;;;;;;;5.93;4.40;;;;;;;7.97;90.87;99367.03;5136850;27;20131;-79
2021/12/01 04:58:30;;;;;;;5.32;4.18;;;;;;;7.90;91.47;99368.44;5136000;27;20021;-78
2021/12/01 05:00:57;;;;;;;4.50;4.07;;;;;;;7.82;92.52;99352.28;5135849;27;20122;-79
2021/12/01 05:03:22;;;;;;;7.20;4.50;;;;;;;7.82;92.73;99360.22;5134696;27;20393;-80
2021/12/01 05:05:48;;;;;;;8.05;4.63;;;;;;;7.75;93.90;99348.44;5136404;27;20019;-79
2021/12/01 05:08:13;;;;;;;7.47;3.78;;;;;;;7.79;94.05;99368.41;5136284;27;20026;-82
2021/12/01 05:10:38;;;;;;;4.18;3.83;;;;;;;7.69;94.49;99343.63;5136135;27;20023;-77
2021/12/01 05:13:04;;;;;;;4.50;4.05;;;;;;;7.76;93.27;99339.53;5135620;27;20114;-78
2021/12/01 05:15:29;;;;;;;5.25;3.72;;;;;;;7.63;94.20;99338.78;5135794;27;20027;-82
2021/12/01 05:17:54;;;;;;;4.13;3.80;;;;;;;7.62;94.73;99329.16;5117630;27;20067;-78
2021/12/01 05:20:20;;;;;;;4.25;3.92;;;;;;;7.60;94.36;99331.91;5136027;27;20456;-81
2021/12/01 05:22:45;;;;;;;3.65;3.35;;;;;;;7.61;94.74;99333.59;5135843;27;20038;-79
2021/12/01 05:25:11;;;;;;;4.15;3.85;;;;;;;7.64;95.16;99329.88;5117489;27;20023;-79
2021/12/01 05:27:36;;;;;;;3.35;3.15;;;;;;;7.73;94.29;99331.81;5129639;27;20065;-80
2021/12/01 05:30:04;;;;;;;4.05;3.72;;;;;;;7.55;94.90;99315.53;5117355;27;20043;-79
2021/12/01 05:32:31;;;;;;;3.25;3.05;;;;;;;7.61;94.95;99319.53;5117230;27;20076;-81
2021/12/01 05:34:56;;;;;;;3.53;3.33;;;;;;;7.53;95.37;99304.25;5135946;27;20015;-83
2021/12/01 05:37:21;;;;;;;3.53;3.20;;;;;;;7.58;95.19;99317.13;5135339;27;20098;-78
2021/12/01 05:39:47;;;;;;;3.33;3.03;;;;;;;7.48;95.25;99295.81;5115732;28;20474;-79
2021/12/01 05:42:13;;;;;;;3.20;3.00;;;;;;;7.58;95.95;99310.00;5145410;27;20039;-82
2021/12/01 05:44:40;;;;;;;4.63;2.75;;;;;;;7.63;94.91;99310.50;5135169;27;20507;-79
2021/12/01 05:47:06;;;;;;;3.28;3.08;;;;;;;7.52;96.29;99305.19;5136179;27;20023;-81
2021/12/01 05:49:32;;;;;;;3.75;3.45;;;;;;;7.51;96.53;99308.81;5117087;27;20076;-79
2021/12/01 05:51:58;;;;;;;3.58;3.15;;;;;;;7.55;96.02;99281.16;5116694;27;20031;-79
2021/12/01 05:54:24;;;;;;;3.40;3.10;;;;;;;7.47;96.65;99281.75;5135753;27;20023;-81
2021/12/01 05:56:50;;;;;;;3.55;2.80;;;;;;;7.43;97.36;99282.91;5116800;27;20034;-80
2021/12/01 05:59:15;;;;;;;2.97;2.70;;;;;;;7.42;97.17;99270.66;5135424;27;20023;-81
2021/12/01 06:01:40;;;;;;;2.97;2.70;;;;;;;7.53;96.02;99255.75;5135380;27;20046;-80
2021/12/01 06:04:06;;;;;;;3.33;3.03;;;;;;;7.54;96.28;99247.72;5135182;27;20110;-77
2021/12/01 06:06:31;;;;;;;2.83;2.63;;;;;;;7.49;96.31;99248.06;5135015;27;20243;-78
2021/12/01 06:08:56;;;;;;;2.92;2.72;;;;;;;7.53;96.38;99255.75;5135463;27;20107;-79
2021/12/01 06:11:22;;;;;;;2.83;2.63;;;;;;;7.38;97.34;99226.03;5116517;27;20043;-79
2021/12/01 06:13:53;;;;;;;2.60;2.40;;;;;;;7.54;96.53;99237.16;5134762;27;20019;-81
2021/12/01 06:16:20;;;;;;;2.80;2.60;;;;;;;7.55;96.33;99228.25;5135217;27;20027;-80
2021/12/01 06:18:46;;;;;;;3.08;2.78;;;;;;;7.50;97.06;99214.53;5116291;27;20063;-79
2021/12/01 06:21:11;;;;;;;2.97;2.78;;;;;;;7.37;97.57;99198.75;5135142;27;20062;-81
2021/12/01 06:23:37;;;;;;;2.65;2.45;;;;;;;7.45;96.84;99209.59;5134774;27;20054;-79
2021/12/01 06:26:02;;;;;;;3.00;2.70;;;;;;;7.44;96.92;99194.69;5135034;27;20039;-80
2021/12/01 06:28:28;;;;;;;3.00;2.80;;;;;;;7.41;97.84;99200.22;5134919;27;20091;-80
2021/12/01 06:30:54;;;;;;;2.80;2.60;;;;;;;7.52;96.62;99202.03;5116512;27;20042;-78
2021/12/01 06:33:19;;;;;;;2.58;2.42;;;;;;;7.51;97.20;99195.06;5111890;27;20087;-80
2021/12/01 06:35:48;;;;;;;2.83;2.63;;;;;;;7.53;97.57;99200.22;5133890;27;20019;-78
2021/12/01 06:38:14;;;;;;;4.50;2.40;;;;;;;7.48;97.80;99193.47;5116429;27;20027;-78
2021/12/01 06:40:39;;;;;;;2.83;2.60;;;;;;;7.49;97.37;99178.44;5134588;27;20023;-78
2021/12/01 06:43:05;;;;;;;2.45;2.25;;;;;;;7.61;96.45;99182.78;5134888;27;20473;-81
2021/12/01 06:45:30;;;;;;;2.72;2.50;;;;;;;7.62;96.07;99181.00;5134526;27;20093;-80
2021/12/01 06:47:55;;;;;;;4.15;2.72;;;;;;;7.40;96.90;99145.63;5134326;27;20023;-81
2021/12/01 06:50:21;;;;;;;2.80;2.25;;;;;;;7.57;96.76;99175.22;5137743;27;20027;-80
2021/12/01 06:52:46;;;;;;;2.50;2.40;;;;;;;7.54;97.30;99178.09;5132282;27;20037;-78
2021/12/01 06:55:12;;;;;;;2.88;2.60;;;;;;;7.59;96.44;99165.34;5134579;27;20401;-81
2021/12/01 06:57:37;;;;;;;2.70;2.50;;;;;;;7.61;97.18;99174.84;5134307;27;20031;-79
2021/12/01 07:00:07;;;;;;;2.58;2.40;;;;;;;7.52;97.58;99154.41;5134645;27;20032;-79
2021/12/01 07:02:32;;;;;;;3.45;2.40;;;;;;;7.72;96.42;99160.78;5134256;27;20473;-83
2021/12/01 07:04:58;;;;;;;3.08;2.85;;;;;;;7.62;97.51;99152.75;5134655;27;20019;-82
2021/12/01 07:07:23;;;;;;;3.28;3.00;;;;;;;7.69;97.32;99146.00;5134274;27;20027;-80
2021/12/01 07:09:50;;;;;;;3.35;3.05;;;;;;;7.69;97.07;99145.16;5134404;27;20035;-81
2021/12/01 07:12:15;;;;;;;3.65;3.38;;;;;;;7.61;97.80;99126.38;5133931;27;20390;-78
2021/12/01 07:14:40;;;;;;;6.05;3.90;;;;;;;7.66;98.00;99127.72;5130311;27;20027;-79
2021/12/01 07:17:06;;;;;;;3.75;3.28;;;;;;;7.65;98.39;99149.84;5133352;27;20038;-78
2021/12/01 07:19:32;;;;;;;4.72;3.80;;;;;;;7.70;98.05;99126.50;5133651;27;20043;-81
2021/12/01 07:21:57;;;;;;;4.47;4.15;;;;;;;7.71;98.28;99133.50;5133830;27;20115;-80
2021/12/01 07:24:23;;;;;;;4.15;3.85;;;;;;;7.73;98.16;99128.06;5133710;27;20054;-78
2021/12/01 07:26:49;;;;;;;3.35;3.15;;;;;;;7.78;97.54;99122.41;5134124;27;20050;-80
2021/12/01 07:29:15;;;;;;;4.75;4.43;;;;;;;7.76;98.29;99146.34;5134124;27;20385;-78
2021/12/01 07:31:40;;;;;;;4.65;4.25;;;;;;;7.68;98.57;99139.03;5133770;27;20118;-82
2021/12/01 07:34:06;;;;;;;4.97;4.55;;;;;;;7.79;98.01;99135.50;5133881;27;20492;-79
2021/12/01 07:36:31;;;;;;;5.95;4.72;;;;;;;7.67;98.45;99124.09;5133734;27;20031;-80
2021/12/01 07:38:59;;;;;;;5.57;5.03;;;;;;;7.78;98.58;99139.13;5133822;27;20102;-80
2021/12/01 07:41:25;;;;;;;7.80;5.68;;;;;;;7.73;98.63;99130.72;5133876;27;20037;-79
2021/12/01 07:43:50;;;;;;;10.45;6.70;;;;;;;7.80;98.70;99125.78;5133506;27;20027;-79
2021/12/01 07:46:16;;;;;;;5.00;4.50;;;;;;;7.78;98.56;99127.72;5133904;27;20023;-79
2021/12/01 07:48:41;;;;;;;5.80;5.22;;;;;;;7.77;98.89;99136.63;5133678;27;20027;-79
2021/12/01 07:51:07;;;;;;;5.40;4.90;;;;;;;7.66;99.42;99127.72;5115360;27;20035;-82
2021/12/01 07:53:32;;;;;;;9.35;5.13;;;;;;;7.76;99.01;99114.59;5133523;27;20445;-79
2021/12/01 07:55:58;;;;;;;5.15;4.75;;;;;;;7.76;99.24;99104.00;5133352;27;20591;-79
2021/12/01 07:58:23;;;;;;;7.00;4.60;;;;;;;7.84;99.16;99109.53;5115073;28;20470;-80
2021/12/01 08:00:48;;;;;;;5.88;4.35;;;;;;;7.87;98.45;99090.75;5115004;28;20054;-80
2021/12/01 08:03:14;;;;;;;4.50;4.20;;;;;;;7.82;98.42;99092.09;5133552;28;20102;-78
2021/12/01 08:05:39;;;;;;;3.90;3.60;;;;;;;7.89;98.43;99106.53;5133538;27;20057;-81
2021/12/01 08:08:06;;;;;;;5.13;4.07;;;;;;;7.92;98.78;99111.56;5133282;28;20059;-80
2021/12/01 08:10:31;;;;;;;5.18;4.78;;;;;;;7.88;99.11;99100.41;5119915;28;20016;-81
2021/12/01 08:13:00;;;;;;;5.25;4.85;;;;;;;7.95;98.46;99082.22;5131776;28;20484;-79
2021/12/01 08:15:25;;;;;;;6.35;4.68;;;;;;;7.93;98.83;99092.91;5132463;28;20164;-79
2021/12/01 08:17:51;;;;;;;6.68;5.40;;;;;;;7.83;98.74;99062.88;5126552;27;20090;-79
2021/12/01 08:20:17;;;;;;;4.90;4.50;;;;;;;7.93;98.97;99087.63;5125278;27;20050;-81
2021/12/01 08:22:42;;;;;;;5.22;4.75;;;;;;;7.94;98.70;99073.44;5125073;27;20450;-80
2021/12/01 08:25:08;;;;;;;6.20;5.57;;;;;;;8.02;98.81;99085.19;5125215;27;20023;-79
2021/12/01 08:27:33;;;;;;;6.40;5.80;;;;;;;7.89;98.49;99066.84;5121682;27;20097;-80
2021/12/01 08:29:58;;;;;;;5.35;4.85;;;;;;;8.15;97.35;99081.44;5125635;27;20462;-80
2021/12/01 08:32:27;;;;;;;4.90;4.50;;;;;;;8.07;97.93;99072.44;5108572;27;20584;-78
2021/12/01 08:34:52;;;;;;;5.65;5.00;;;;;;;7.92;98.02;99058.63;5129398;27;20023;-80
2021/12/01 08:37:19;;;;;;;4.75;4.35;;;;;;;8.08;98.09;99074.94;5126718;27;20030;-80
2021/12/01 08:39:50;;;;;;;4.65;4.25;;;;;;;8.04;98.15;99051.50;5125909;27;20023;-80
2021/12/01 08:42:17;;;;;;;5.00;4.50;;;;;;;8.07;98.23;99065.34;5127406;27;20081;-78
2021/12/01 08:44:45;;;;;;;5.13;4.10;;;;;;;8.14;97.97;99065.66;5130033;27;20508;-80
2021/12/01 08:47:12;;;;;;;5.72;4.38;;;;;;;8.19;97.51;99074.09;5134546;27;20477;-80
2021/12/01 08:49:39;;;;;;;4.20;3.80;;;;;;;8.18;96.78;99054.72;5134611;27;20481;-82
2021/12/01 08:52:04;;;;;;;4.60;4.20;;;;;;;8.20;97.27;99067.81;5130014;27;20024;-81
2021/12/01 08:54:30;;;;;;;5.80;3.83;;;;;;;8.27;97.34;99055.75;5136297;27;20488;-79
2021/12/01 08:56:57;;;;;;;6.65;4.75;;;;;;;8.15;97.09;99044.38;5134778;27;20034;-82
2021/12/01 08:59:22;;;;;;;5.75;4.38;;;;;;;8.34;95.44;99051.63;5135789;27;20019;-79
2021/12/01 09:01:47;;;;;;;4.28;3.72;;;;;;;8.41;96.37;99049.34;5128534;27;20043;-78
2021/12/01 09:04:13;;;;;;;3.20;2.90;;;;;;;8.45;95.74;99061.38;5128405;27;20120;-82
2021/12/01 09:06:38;;;;;;;4.55;3.95;;;;;;;8.36;95.56;99056.81;5136235;27;20481;-79
2021/12/01 09:09:03;;;;;;;5.93;3.78;;;;;;;8.51;95.34;99062.69;5130985;27;20023;-79
2021/12/01 09:11:29;;;;;;;2.97;2.72;;;;;;;8.46;95.05;99071.00;5130142;27;20031;-78
2021/12/01 09:13:54;;;;;;;3.55;3.00;;;;;;;8.34;95.71;99058.75;5131941;27;20035;-78
2021/12/01 09:16:21;;;;;;;2.70;2.50;;;;;;;8.30;95.89;99052.84;5129675;27;20031;-79
2021/12/01 09:18:47;;;;;;;2.40;2.30;;;;;;;8.36;95.31;99070.88;5135485;27;20030;-80
2021/12/01 09:21:13;;;;;;;2.97;2.78;;;;;;;8.27;95.27;99058.41;5135537;27;20031;-79
2021/12/01 09:23:38;;;;;;;2.58;2.38;;;;;;;8.31;94.83;99054.53;5130319;27;20072;-79
2021/12/01 09:26:04;;;;;;;3.35;2.65;;;;;;;8.42;94.68;99064.28;5130920;27;20106;-80
2021/12/01 09:28:29;;;;;;;2.90;2.70;;;;;;;8.25;95.94;99062.16;5112907;27;20031;-81
2021/12/01 09:30:56;;;;;;;3.80;2.78;;;;;;;8.33;95.56;99071.16;5132786;27;20029;-80
2021/12/01 09:33:22;;;;;;;4.20;3.30;;;;;;;8.21;96.39;99053.63;5120691;27;20087;-81
2021/12/01 09:35:47;;;;;;;4.80;3.45;;;;;;;8.31;95.26;99077.53;5124579;27;20023;-80
2021/12/01 09:38:14;;;;;;;3.58;3.28;;;;;;;8.22;96.37;99088.88;5126270;27;20469;-79
2021/12/01 09:40:44;;;;;;;3.28;2.97;;;;;;;8.22;96.53;99095.00;5126099;27;20015;-80
2021/12/01 09:43:10;;;;;;;6.13;3.20;;;;;;;8.14;97.02;99085.03;5136033;27;20102;-79
2021/12/01 09:45:35;;;;;;;3.50;3.10;;;;;;;8.05;96.14;99077.84;5117029;27;20154;-80
2021/12/01 09:48:01;;;;;;;5.47;3.38;;;;;;;8.06;95.76;99098.09;5135692;27;20091;-81
2021/12/01 09:50:26;;;;;;;5.60;3.22;;;;;;;8.05;95.06;99085.78;5134732;27;20119;-79
2021/12/01 09:52:52;;;;;;;5.65;3.45;;;;;;;8.10;95.02;99088.06;5115854;27;20066;-80
2021/12/01 09:55:18;;;;;;;4.88;3.40;;;;;;;8.10;95.43;99101.31;5115336;28;20023;-81
2021/12/01 09:57:59;;;;;;;7.82;3.75;;;;;;;8.11;95.70;99098.53;5132113;27;20034;-79
2021/12/01 10:00:25;;;;;;;8.90;3.70;;;;;;;8.04;95.63;99073.53;5135000;27;20481;-81
2021/12/01 10:02:51;;;;;;;6.75;3.30;;;;;;;8.10;93.71;99091.56;5135322;27;20041;-79
2021/12/01 10:06:14;;;;;;;10.60;3.30;;;;;;;8.13;94.25;99095.75;5135393;27;20034;-81
2021/12/01 10:08:47;;;;;;;9.50;3.15;;;;;;;8.04;93.31;99083.28;5132737;27;20047;-81
2021/12/01 10:11:19;;;;;;;9.90;3.28;;;;;;;8.09;93.43;99095.19;5135417;27;20027;-78
2021/12/01 10:13:53;;;;;;;10.23;3.20;;;;;;;8.11;93.01;99087.94;5098388;27;20043;-78
2021/12/01 10:16:19;;;;;;;8.05;3.17;;;;;;;8.10;92.91;99094.22;5114977;28;20355;-80
2021/12/01 10:18:47;;;;;;;13.35;3.58;;;;;;;8.03;93.21;99078.94;5133032;27;20089;-81
2021/12/01 10:21:36;;;;;;;10.35;3.35;;;;;;;8.08;93.56;99085.53;5135252;27;20057;-80
2021/12/01 10:24:25;;;;;;;10.10;3.28;;;;;;;8.16;92.15;99095.50;5135143;27;20084;-78
2021/12/01 10:26:52;;;;;;;15.57;3.55;;;;;;;8.27;90.95;99092.00;5134573;27;20066;-80
2021/12/01 10:29:30;;;;;;;11.48;3.10;;;;;;;8.37;91.15;99087.63;5134006;27;20037;-78
2021/12/01 10:32:20;;;;;;;11.82;3.53;;;;;;;8.70;90.04;99091.13;5134817;27;20068;-80
2021/12/01 10:34:50;;;;;;;9.43;3.10;;;;;;;8.78;86.75;99096.63;5134017;27;20046;-78
2021/12/01 10:37:26;;;;;;;10.77;3.05;;;;;;;8.65;86.26;99096.81;5134048;27;20489;-80
2021/12/01 10:40:14;;;;;;;11.18;2.95;;;;;;;8.58;85.97;99092.97;5135006;27;20031;-80
2021/12/01 10:42:54;;;;;;;9.05;2.78;;;;;;;9.02;84.56;99072.50;5134497;27;20479;-78
2021/12/01 10:45:26;;;;;;;7.22;2.58;;;;;;;9.63;81.71;99069.00;5134947;27;20114;-80
2021/12/01 10:47:52;;;;;;;13.38;2.72;;;;;;;9.75;80.23;99087.34;5133806;27;20436;-81
2021/12/01 10:50:20;;;;;;;8.95;2.95;;;;;;;9.94;79.15;99078.59;5115244;27;20151;-81
2021/12/01 10:52:49;;;;;;;8.15;2.45;;;;;;;10.18;77.83;99072.91;5134522;27;20446;-79
2021/12/01 10:55:20;;;;;;;12.05;2.15;;;;;;;10.61;76.75;99068.19;5134161;27;20542;-79
2021/12/01 10:58:15;;;;;;;8.38;2.53;;;;;;;10.76;76.93;99079.22;5134515;27;20084;-79
2021/12/01 11:00:53;;;;;;;9.00;2.75;;;;;;;10.32;77.52;99084.13;5053796;28;20049;-81
2021/12/01 11:03:21;;;;;;;8.90;2.30;;;;;;;9.79;77.18;99079.94;5068188;28;20115;-81
2021/12/01 11:05:51;;;;;;;7.95;2.10;;;;;;;9.41;80.45;99068.25;5071016;28;20040;-79
2021/12/01 11:08:21;;;;;;;10.43;2.38;;;;;;;9.30;80.50;99081.59;5053993;28;20033;-81
2021/12/01 11:10:56;;;;;;;9.82;2.53;;;;;;;9.19;81.11;99086.97;5052050;28;20048;-81
2021/12/01 11:13:23;;;;;;;6.53;2.45;;;;;;;8.94;81.98;99093.50;5046616;28;20029;-80
2021/12/01 11:15:57;;;;;;;7.80;3.10;;;;;;;8.89;81.79;99107.16;5068898;28;20464;-79
2021/12/01 11:18:26;;;;;;;7.78;2.55;;;;;;;8.75;83.41;99092.41;5064209;28;20082;-81
2021/12/01 11:20:53;;;;;;;12.65;2.90;;;;;;;8.77;82.81;99100.25;5061525;28;20051;-79
2021/12/01 11:23:24;;;;;;;6.05;2.00;;;;;;;8.73;82.23;99101.47;5053659;28;20052;-78
2021/12/01 11:25:51;;;;;;;9.27;2.53;;;;;;;8.69;83.01;99103.53;5068552;28;20040;-81
2021/12/01 11:28:18;;;;;;;5.85;2.65;;;;;;;8.58;82.78;99106.22;5058588;28;20495;-79
2021/12/01 11:30:48;;;;;;;7.47;2.30;;;;;;;8.50;82.08;99106.00;5051522;28;20047;-78
2021/12/01 11:33:17;;;;;;;4.35;2.40;;;;;;;8.49;82.00;99122.88;5034966;28;20033;-79
2021/12/01 11:35:45;;;;;;;10.13;2.60;;;;;;;8.31;81.70;99083.66;5052315;28;20043;-79
2021/12/01 11:38:11;;;;;;;7.90;2.67;;;;;;;8.32;84.17;99101.22;5130011;27;20456;-81
2021/12/01 11:40:38;;;;;;;4.90;2.35;;;;;;;8.22;83.19;99092.38;5133780;27;20446;-79
2021/12/01 11:43:08;;;;;;;11.55;2.85;;;;;;;8.27;83.51;99092.00;5115326;27;20026;-79
2021/12/01 11:45:35;;;;;;;9.07;2.75;;;;;;;8.23;83.62;99078.16;5114880;27;20031;-80
2021/12/01 11:48:01;;;;;;;7.68;2.70;;;;;;;8.25;83.77;99070.09;5133409;27;20023;-79
2021/12/01 11:50:32;;;;;;;9.57;2.63;;;;;;;8.28;82.31;99083.91;5133464;27;20031;-80